createdAt,value
2023-03-31T00:01:37.013Z,99876.00
2023-03-31T00:04:04.958Z,99973.41
2023-03-31T00:06:48.766Z,99878.63
2023-03-31T00:09:18.981Z,99962.50
2023-03-31T00:11:46.308Z,99962.50
2023-03-31T00:14:15.866Z,99954.31
2023-03-31T00:16:42.594Z,99954.31
2023-03-31T00:19:18.958Z,99818.56
2023-03-31T00:21:47.760Z,99959.50
2023-03-31T00:24:16.159Z,99985.88
2023-03-31T00:26:42.719Z,99962.31
2023-03-31T00:29:10.291Z,99989.34
2023-03-31T00:31:38.790Z,99953.66
2023-03-31T00:34:05.971Z,99972.66
2023-03-31T00:36:36.470Z,99978.81
2023-03-31T00:39:09.392Z,99975.28
2023-03-31T00:41:39.100Z,99978.53
2023-03-31T00:44:19.225Z,99909.22
2023-03-31T00:46:54.285Z,99886.97
2023-03-31T00:49:33.027Z,99895.66
2023-03-31T00:52:14.860Z,99876.00
2023-03-31T00:54:47.350Z,99870.16
2023-03-31T00:57:16.230Z,99886.47
2023-03-31T00:59:58.791Z,99962.69
2023-03-31T01:02:30.138Z,99896.53
2023-03-31T01:05:02.470Z,99844.84
2023-03-31T01:10:05.298Z,99918.69
2023-03-31T01:12:38.442Z,99814.44
2023-03-31T01:15:06.408Z,99885.91
2023-03-31T01:17:46.285Z,99865.94
2023-03-31T01:20:48.913Z,99906.22
2023-03-31T01:23:18.660Z,99877.75
2023-03-31T01:31:23.947Z,99886.94
2023-03-31T01:34:16.564Z,99881.88
2023-03-31T01:37:04.233Z,99882.44
2023-03-31T01:39:42.947Z,99857.84
2023-03-31T01:42:15.486Z,99874.44
2023-03-31T01:45:00.335Z,99870.63
2023-03-31T01:47:44.459Z,99862.53
2023-03-31T01:50:33.647Z,99869.09
2023-03-31T01:53:15.221Z,99874.75
2023-03-31T01:56:00.784Z,99867.22
2023-03-31T01:58:40.458Z,99851.56
2023-03-31T02:01:19.587Z,99855.06
2023-03-31T02:03:57.256Z,99851.69
2023-03-31T02:06:33.559Z,99842.44
2023-03-31T02:12:01.103Z,99769.81
2023-03-31T02:14:34.688Z,99756.19
2023-03-31T02:17:08.727Z,99755.22
2023-03-31T02:19:40.131Z,99775.72
2023-03-31T02:22:09.096Z,99733.94
2023-03-31T02:24:41.443Z,99733.97
2023-03-31T02:27:32.007Z,99751.88
2023-03-31T02:30:02.214Z,99786.84
2023-03-31T02:32:41.065Z,99726.81
2023-03-31T02:35:12.259Z,99784.28
2023-03-31T02:37:40.956Z,99783.28
2023-03-31T02:40:12.778Z,99786.34
2023-03-31T02:42:41.172Z,99771.84
2023-03-31T02:45:44.616Z,99779.72
2023-03-31T02:52:24.490Z,99745.22
2023-03-31T02:55:09.083Z,99754.53
2023-03-31T02:57:56.729Z,99753.84
2023-03-31T03:00:44.078Z,99743.81
2023-03-31T03:03:28.216Z,99717.16
2023-03-31T03:06:19.330Z,99719.47
2023-03-31T03:09:04.969Z,99686.34
2023-03-31T03:11:47.410Z,99680.13
2023-03-31T03:14:37.059Z,99549.25
2023-03-31T03:17:17.452Z,99544.06
2023-03-31T03:19:44.522Z,99612.84
2023-03-31T03:22:14.181Z,99667.19
2023-03-31T03:24:46.300Z,99663.75
2023-03-31T03:27:13.526Z,99663.75
2023-03-31T03:29:41.882Z,99686.00
2023-03-31T03:32:12.804Z,99592.03
2023-03-31T03:34:39.330Z,99627.56
2023-03-31T03:37:05.952Z,99612.69
2023-03-31T03:39:32.579Z,99629.47
2023-03-31T03:41:59.103Z,99617.63
2023-03-31T03:44:25.604Z,99604.94
2023-03-31T03:46:52.071Z,99609.16
2023-03-31T03:49:18.953Z,99582.72
2023-03-31T03:51:47.029Z,99547.06
2023-03-31T03:54:13.945Z,99604.56
2023-03-31T03:56:40.587Z,99581.56
2023-03-31T03:59:07.040Z,99591.63
2023-03-31T04:01:33.543Z,99579.97
2023-03-31T04:04:01.276Z,99577.72
2023-03-31T04:06:27.738Z,99577.72
2023-03-31T04:08:54.266Z,99601.53
2023-03-31T04:11:20.825Z,99603.19
2023-03-31T04:13:47.581Z,99597.13
2023-03-31T04:16:14.850Z,99580.00
2023-03-31T04:18:43.534Z,99577.44
2023-03-31T04:21:15.758Z,99581.66
2023-03-31T04:23:46.434Z,99576.22
2023-03-31T04:26:18.514Z,99559.53
2023-03-31T04:28:50.738Z,99551.69
2023-03-31T04:31:27.002Z,99538.19
2023-03-31T04:33:55.025Z,99538.03
2023-03-31T04:36:22.519Z,99534.41
2023-03-31T04:38:55.266Z,99518.09
2023-03-31T04:41:24.436Z,99534.41
2023-03-31T04:43:59.015Z,99530.00
2023-03-31T04:46:26.596Z,99438.41
2023-03-31T04:48:53.160Z,99526.56
2023-03-31T04:51:20.590Z,99400.34
2023-03-31T04:53:53.401Z,99400.34
2023-03-31T04:56:21.132Z,99367.53
2023-03-31T04:58:47.657Z,99402.88
2023-03-31T05:01:19.978Z,99452.91
2023-03-31T05:03:48.096Z,99463.38
2023-03-31T05:06:16.463Z,99407.50
2023-03-31T05:08:44.375Z,99486.75
2023-03-31T05:11:11.429Z,99413.44
2023-03-31T05:13:38.185Z,99347.91
2023-03-31T05:16:14.749Z,99485.97
2023-03-31T05:18:42.491Z,99422.50
2023-03-31T05:21:22.909Z,99336.66
2023-03-31T05:24:00.775Z,99310.50
2023-03-31T05:26:29.374Z,99339.91
2023-03-31T05:58:43.741Z,99274.56
2023-03-31T06:06:28.005Z,99338.63
2023-03-31T06:08:59.004Z,99330.19
2023-03-31T06:11:28.756Z,99353.16
2023-03-31T06:13:58.125Z,99267.19
2023-03-31T06:16:31.234Z,99284.38
2023-03-31T06:18:58.156Z,99354.81
2023-03-31T06:21:25.036Z,99274.09
2023-03-31T06:23:55.176Z,99246.94
2023-03-31T06:26:22.792Z,99323.25
2023-03-31T06:31:32.156Z,99292.72
2023-03-31T06:33:58.705Z,99240.03
2023-03-31T06:47:06.363Z,99282.28
2023-03-31T06:52:08.598Z,99285.72
2023-03-31T06:54:35.159Z,99229.03
2023-03-31T06:59:43.650Z,99275.88
2023-03-31T07:04:55.092Z,99176.19
2023-03-31T07:18:14.213Z,99258.75
2023-03-31T07:31:56.517Z,99245.47
2023-03-31T07:34:23.082Z,99220.59
2023-03-31T07:36:49.562Z,99220.59
2023-03-31T07:39:16.029Z,99231.84
2023-03-31T07:41:42.585Z,99242.88
2023-03-31T07:44:09.956Z,99234.22
2023-03-31T07:46:36.475Z,99233.00
2023-03-31T07:49:03.380Z,99238.00
2023-03-31T07:51:29.853Z,99227.56
2023-03-31T07:53:56.258Z,99249.91
2023-03-31T07:56:24.935Z,99249.50
2023-03-31T07:58:54.440Z,99212.13
2023-03-31T08:01:25.805Z,99244.69
2023-03-31T08:03:54.532Z,99233.25
2023-03-31T08:06:23.426Z,99197.47
2023-03-31T08:14:06.497Z,99124.13
2023-03-31T08:16:36.785Z,99124.13
2023-03-31T08:19:03.408Z,99166.13
2023-03-31T08:21:29.994Z,99195.22
2023-03-31T08:23:56.508Z,99207.28
2023-03-31T08:26:24.373Z,99225.78
2023-03-31T14:03:29.449Z,98999.13
2023-03-31T14:30:34.715Z,98963.19
2023-03-31T14:33:07.546Z,98968.53
2023-03-31T14:35:38.947Z,98971.88
2023-03-31T14:41:16.360Z,98946.13
2023-03-31T14:43:50.505Z,98964.91
2023-03-31T14:46:21.834Z,98960.34
2023-03-31T14:48:50.217Z,98947.59
2023-03-31T14:51:28.396Z,98953.13
2023-03-31T14:53:58.747Z,98940.19
2023-03-31T14:56:41.524Z,98933.72
2023-03-31T14:59:08.355Z,98932.47
2023-03-31T15:01:39.862Z,98933.69
2023-03-31T15:04:08.349Z,98934.34
2023-03-31T15:06:34.827Z,98941.78
2023-03-31T15:09:03.994Z,98925.38
2023-03-31T15:11:36.743Z,98928.88
2023-03-31T15:14:05.879Z,98924.66
2023-03-31T15:16:35.501Z,98923.88
2023-03-31T15:19:18.379Z,98928.66
2023-03-31T15:21:45.642Z,98931.88
2023-03-31T15:24:15.414Z,98937.28
2023-03-31T15:26:48.039Z,98929.91
2023-03-31T18:30:53.674Z,98835.16
2023-03-31T18:50:15.424Z,98857.09
2023-03-31T18:52:42.096Z,98887.34
2023-03-31T18:59:11.586Z,98940.63
2023-03-31T19:04:49.856Z,98899.03
2023-03-31T19:07:17.586Z,98938.88
2023-03-31T19:09:44.978Z,98848.75
2023-03-31T19:12:11.871Z,98898.81
2023-03-31T19:14:40.921Z,98935.03
2023-03-31T19:17:07.322Z,98944.28
2023-03-31T19:19:33.790Z,98938.19
2023-03-31T19:22:00.430Z,98919.81
2023-03-31T19:24:29.564Z,98942.84
2023-03-31T19:26:56.965Z,98907.59
2023-03-31T19:29:24.000Z,98907.63
2023-03-31T19:31:51.906Z,98833.72
2023-03-31T19:34:18.515Z,98932.06
2023-03-31T19:36:45.022Z,98927.22
2023-03-31T19:42:33.380Z,98917.66
2023-03-31T19:44:59.914Z,98937.69
2023-03-31T19:47:26.598Z,98930.06
2023-03-31T19:49:53.334Z,98919.41
2023-03-31T19:52:19.773Z,98928.84
2023-03-31T19:54:49.320Z,98923.59
2023-03-31T19:57:16.079Z,98899.38
2023-03-31T19:59:42.599Z,98905.78
2023-03-31T20:02:12.706Z,98909.19
2023-03-31T20:04:39.964Z,98879.13
2023-03-31T20:07:06.454Z,98911.56
2023-03-31T20:09:41.998Z,98904.75
2023-03-31T20:12:08.923Z,98922.00
2023-03-31T20:14:35.440Z,98919.81
2023-03-31T20:17:03.223Z,98903.34
2023-03-31T20:19:29.767Z,98909.97
2023-03-31T20:21:57.906Z,98891.56
2023-03-31T20:24:24.764Z,98904.38
2023-03-31T20:26:51.991Z,98898.56
2023-03-31T20:29:22.254Z,98858.13
2023-03-31T20:31:52.813Z,98816.25
2023-03-31T20:34:24.564Z,98852.72
2023-03-31T20:36:53.854Z,98855.56
2023-03-31T20:39:23.423Z,98913.81
2023-03-31T20:44:26.808Z,98881.78
2023-03-31T20:46:57.134Z,98879.34
2023-03-31T20:49:23.987Z,98874.56
2023-03-31T20:51:51.008Z,98877.13
2023-03-31T20:54:20.631Z,98895.41
2023-03-31T20:56:51.459Z,98895.41
2023-03-31T20:59:18.980Z,98849.16
2023-03-31T21:01:52.910Z,98829.13
2023-03-31T21:04:21.273Z,98873.38
2023-03-31T21:06:52.187Z,98861.78
2023-03-31T21:09:22.813Z,98859.38
2023-03-31T21:11:55.927Z,98880.84
2023-03-31T21:14:24.523Z,98888.03
2023-03-31T21:16:51.154Z,98853.81
2023-03-31T21:19:31.666Z,98905.88
2023-03-31T21:21:58.492Z,98871.41
2023-03-31T21:24:26.362Z,98921.72
2023-03-31T21:26:58.305Z,98870.63
2023-03-31T21:29:25.740Z,98866.03
2023-03-31T21:31:52.337Z,98889.06
2023-03-31T21:34:18.856Z,98916.31
2023-03-31T21:36:45.312Z,98903.94
2023-03-31T21:39:12.407Z,98912.53
2023-03-31T21:41:40.647Z,98896.09
2023-03-31T21:44:08.920Z,98904.91
2023-03-31T21:49:10.928Z,98875.28
2023-03-31T21:54:07.642Z,98878.50
2023-03-31T22:01:52.136Z,98877.66
2023-03-31T22:06:48.320Z,98883.50
2023-03-31T22:09:15.261Z,98901.72
2023-03-31T22:11:42.076Z,98908.97
2023-03-31T22:14:08.599Z,98909.97
2023-03-31T22:16:35.439Z,98914.19
2023-03-31T22:19:02.714Z,98912.81
2023-03-31T22:21:29.259Z,98899.13
2023-03-31T22:23:58.619Z,98920.41
2023-03-31T22:26:27.056Z,98924.03
2023-03-31T22:28:53.582Z,98926.25
2023-03-31T22:31:20.677Z,98924.59
2023-03-31T22:33:47.775Z,98920.22
2023-03-31T22:36:14.703Z,98925.03
2023-03-31T22:38:41.922Z,98915.19
2023-03-31T22:41:08.686Z,98916.38
2023-03-31T22:43:35.692Z,98898.78
2023-03-31T22:46:04.624Z,98903.94
2023-03-31T22:48:31.246Z,98913.38
2023-03-31T22:50:57.685Z,98912.81
2023-03-31T22:53:24.167Z,98917.41
2023-03-31T22:55:54.236Z,98898.97
2023-03-31T22:58:21.520Z,98907.19
2023-03-31T23:00:55.701Z,98920.81
2023-03-31T23:03:22.177Z,98916.00
2023-03-31T23:05:48.657Z,98912.00
2023-03-31T23:08:15.255Z,98913.59
2023-03-31T23:10:41.955Z,98902.56
2023-03-31T23:13:08.430Z,98907.34
2023-03-31T23:15:35.658Z,98916.78
2023-03-31T23:18:02.153Z,98907.78
2023-03-31T23:20:29.552Z,98886.75
2023-03-31T23:22:58.312Z,98906.00
2023-03-31T23:25:24.840Z,98903.56
2023-03-31T23:27:51.280Z,98901.78
2023-03-31T23:30:17.787Z,98901.00
2023-03-31T23:32:44.324Z,98907.59
2023-03-31T23:35:11.478Z,98902.59
2023-03-31T23:37:37.975Z,98899.34
2023-03-31T23:40:05.343Z,98899.75
2023-03-31T23:42:32.015Z,98902.75
2023-03-31T23:44:58.876Z,98810.00
2023-03-31T23:47:25.536Z,98859.91
2023-03-31T23:49:52.211Z,98893.75
2023-03-31T23:52:18.682Z,98898.78
2023-03-31T23:54:45.163Z,98893.34
2023-03-31T23:57:12.694Z,98895.34
2023-03-31T23:59:39.108Z,98888.72
